Time;durP1;ratioP1;P1;durP2;ratioP2;P2;SDS_P1;SDS_P2;PMS_P1;PMS_P2;Temp;Humidity;BMP_temperature;BMP_pressure;BME280_temperature;BME280_humidity;BME280_pressure;Samples;Min_cycle;Max_cycle;Signal;HPM_P1;HPM_P2
2022/08/13 00:01:38;;;;;;;7.43;3.33;;;12.90;99.90;;;;;;8427636;28;20470;-79
2022/08/13 00:05:39;;;;;;;6.22;5.63;;;12.90;99.90;;;;;;8432984;28;20719;-80
2022/08/13 00:09:42;;;;;;;5.03;4.55;;;13.00;99.90;;;;;;8458760;28;20023;-79
2022/08/13 00:13:43;;;;;;;8.05;7.25;;;12.90;99.90;;;;;;8436771;28;20019;-78
2022/08/13 00:17:45;;;;;;;3.42;3.03;;;12.80;99.90;;;;;;8445643;28;20062;-78
2022/08/13 00:21:47;;;;;;;8.65;6.93;;;12.60;99.90;;;;;;8429821;28;20015;-80
2022/08/13 00:25:51;;;;;;;6.82;5.20;;;12.50;99.90;;;;;;8431022;28;20083;-80
2022/08/13 00:29:56;;;;;;;5.20;4.28;;;12.30;99.90;;;;;;8448104;28;20020;-79
2022/08/13 00:33:58;;;;;;;7.03;5.30;;;12.40;99.90;;;;;;8433133;28;20009;-78
2022/08/13 00:37:58;;;;;;;6.40;5.80;;;12.20;99.90;;;;;;8428847;28;20016;-79
2022/08/13 00:41:59;;;;;;;5.53;4.22;;;12.10;99.90;;;;;;8448968;28;20053;-80
2022/08/13 00:46:01;;;;;;;3.58;3.03;;;12.10;99.90;;;;;;8420343;28;20145;-80
2022/08/13 00:50:05;;;;;;;6.57;5.78;;;12.20;99.90;;;;;;8419969;28;20028;-80
2022/08/13 00:54:14;;;;;;;6.80;3.92;;;12.20;99.90;;;;;;8433117;28;20073;-79
2022/08/13 00:58:16;;;;;;;6.07;4.05;;;12.20;99.90;;;;;;8424619;28;20372;-77
2022/08/13 01:02:20;;;;;;;6.15;5.22;;;12.00;99.90;;;;;;8457948;28;20023;-79
2022/08/13 01:06:22;;;;;;;3.95;3.05;;;11.80;99.90;;;;;;8456945;28;20019;-79
2022/08/13 01:10:23;;;;;;;4.57;4.15;;;11.60;99.90;;;;;;8434933;28;20077;-78
2022/08/13 01:14:31;;;;;;;4.72;3.55;;;11.30;99.90;;;;;;8456901;28;20024;-79
2022/08/13 01:18:33;;;;;;;4.72;3.42;;;11.20;99.90;;;;;;8417199;28;20020;-80
2022/08/13 01:22:34;;;;;;;3.95;3.45;;;11.30;99.90;;;;;;8424364;28;20020;-79
2022/08/13 01:26:35;;;;;;;4.07;3.60;;;11.30;99.90;;;;;;8418539;28;20032;-80
2022/08/13 01:30:39;;;;;;;7.07;5.38;;;11.40;99.90;;;;;;8451930;28;20403;-78
2022/08/13 01:34:40;;;;;;;3.75;3.45;;;11.60;99.90;;;;;;8428733;28;20016;-79
2022/08/13 01:38:41;;;;;;;4.57;2.85;;;11.70;99.90;;;;;;8433373;28;20199;-80
2022/08/13 01:42:45;;;;;;;5.38;4.40;;;11.90;99.90;;;;;;8413654;28;20556;-80
2022/08/13 01:51:08;;;;;;;7.40;4.88;;;11.60;99.90;;;;;;8440511;28;20039;-78
2022/08/13 01:55:09;;;;;;;6.95;4.50;;;11.50;99.90;;;;;;8425530;28;20012;-79
2022/08/13 01:59:10;;;;;;;5.05;4.18;;;11.70;99.90;;;;;;8421195;28;20022;-79
2022/08/13 02:03:16;;;;;;;3.55;2.90;;;11.70;99.90;;;;;;8437206;22;20043;-83
2022/08/13 02:07:17;;;;;;;4.03;3.42;;;11.70;99.90;;;;;;8419808;28;20020;-82
2022/08/13 02:11:19;;;;;;;3.08;2.72;;;11.90;99.90;;;;;;8433570;28;20031;-84
2022/08/13 02:15:19;;;;;;;3.35;2.38;;;11.70;99.90;;;;;;8436444;28;20441;-84
2022/08/13 02:19:20;;;;;;;2.97;2.67;;;11.40;99.90;;;;;;8444395;28;20028;-83
2022/08/13 02:23:25;;;;;;;3.83;3.25;;;10.90;99.90;;;;;;8432174;28;20046;-82
2022/08/13 02:27:26;;;;;;;4.32;3.13;;;10.70;99.90;;;;;;8465379;28;20093;-83
2022/08/13 02:31:28;;;;;;;4.28;3.65;;;10.50;99.90;;;;;;8442750;28;20031;-84
2022/08/13 02:35:29;;;;;;;3.75;3.45;;;10.40;99.90;;;;;;8434090;28;20026;-83
2022/08/13 02:39:29;;;;;;;5.63;3.70;;;10.60;99.90;;;;;;8410402;28;20016;-84
2022/08/13 02:43:31;;;;;;;7.13;4.10;;;10.60;99.90;;;;;;8443348;28;20428;-83
2022/08/13 02:47:32;;;;;;;4.22;3.63;;;10.50;99.90;;;;;;8441088;28;20015;-83
2022/08/13 02:51:33;;;;;;;4.97;3.90;;;10.40;99.90;;;;;;8433715;28;20111;-83
2022/08/13 02:55:33;;;;;;;4.10;3.40;;;10.20;99.90;;;;;;8427647;28;20028;-82
2022/08/13 02:59:34;;;;;;;3.70;3.30;;;10.10;99.90;;;;;;8463358;28;20027;-82
2022/08/13 03:03:35;;;;;;;5.20;3.75;;;9.90;99.90;;;;;;8420088;28;20044;-82
2022/08/13 03:07:40;;;;;;;5.18;4.15;;;9.70;99.90;;;;;;8444992;28;20484;-83
2022/08/13 03:11:40;;;;;;;5.13;4.35;;;9.50;99.90;;;;;;8433020;28;20028;-83
2022/08/13 03:15:44;;;;;;;5.93;4.20;;;9.50;99.90;;;;;;8442651;28;20046;-84
2022/08/13 03:19:45;;;;;;;5.20;4.70;;;9.60;99.90;;;;;;8451703;28;20556;-84
2022/08/13 03:23:46;;;;;;;5.25;4.53;;;9.80;99.90;;;;;;8466979;28;20052;-83
2022/08/13 03:27:48;;;;;;;6.70;4.15;;;9.90;99.90;;;;;;8469395;28;20024;-84
2022/08/13 03:31:48;;;;;;;5.68;4.35;;;10.00;99.90;;;;;;8473149;28;20024;-82
2022/08/13 03:35:49;;;;;;;4.90;4.40;;;9.90;99.90;;;;;;8440593;28;20957;-82
2022/08/13 03:39:50;;;;;;;6.57;5.00;;;9.80;99.90;;;;;;8442801;28;20039;-83
2022/08/13 03:43:53;;;;;;;5.25;4.20;;;9.80;99.90;;;;;;8449955;28;20022;-83
2022/08/13 03:47:55;;;;;;;4.45;4.05;;;9.90;99.90;;;;;;8446760;28;20022;-83
2022/08/13 03:51:55;;;;;;;4.57;3.97;;;10.20;99.90;;;;;;8444191;28;20132;-83
2022/08/13 03:55:58;;;;;;;5.20;4.00;;;10.00;99.90;;;;;;8444495;28;20038;-83
2022/08/13 03:59:59;;;;;;;6.65;4.05;;;9.80;99.90;;;;;;8465343;28;20091;-83
2022/08/13 04:04:00;;;;;;;5.65;4.75;;;9.50;99.90;;;;;;8434463;28;20279;-82
2022/08/13 04:08:01;;;;;;;6.57;4.07;;;9.80;99.90;;;;;;8447749;28;20114;-82
2022/08/13 04:12:01;;;;;;;4.25;3.80;;;9.50;99.90;;;;;;8459113;28;20434;-84
2022/08/13 04:16:07;;;;;;;6.47;4.78;;;9.30;99.90;;;;;;8430646;28;20022;-83
2022/08/13 04:20:12;;;;;;;4.95;4.32;;;8.90;99.90;;;;;;8445459;28;20091;-83
2022/08/13 04:24:12;;;;;;;8.23;6.35;;;8.80;99.90;;;;;;8429327;28;20031;-83
2022/08/13 04:28:15;;;;;;;8.75;5.05;;;8.60;99.90;;;;;;8462167;28;20479;-82
2022/08/13 04:32:15;;;;;;;9.07;5.22;;;8.70;99.90;;;;;;8463024;28;20020;-84
2022/08/13 04:36:16;;;;;;;5.70;5.10;;;8.70;99.90;;;;;;8430362;28;20126;-83
2022/08/13 04:40:18;;;;;;;5.95;5.13;;;8.80;99.90;;;;;;8432466;28;20483;-82
2022/08/13 04:44:19;;;;;;;6.85;5.65;;;8.80;99.90;;;;;;8438313;28;20026;-83
2022/08/13 04:48:20;;;;;;;6.47;5.28;;;8.90;99.90;;;;;;8431865;28;20051;-84
2022/08/13 04:52:21;;;;;;;5.88;5.28;;;8.90;99.90;;;;;;8432704;28;20059;-83
2022/08/13 04:56:21;;;;;;;8.40;5.28;;;9.00;99.90;;;;;;8438336;28;20027;-83
2022/08/13 05:00:29;;;;;;;6.13;4.93;;;9.20;99.90;;;;;;8432638;28;20039;-83
2022/08/13 05:04:29;;;;;;;4.95;4.32;;;9.30;99.90;;;;;;8416646;28;20062;-83
2022/08/13 05:08:31;;;;;;;5.20;4.18;;;9.50;99.90;;;;;;8443091;28;20081;-84
2022/08/13 05:12:36;;;;;;;6.80;4.88;;;9.50;99.90;;;;;;8408239;28;20103;-83
2022/08/13 05:16:37;;;;;;;8.05;5.05;;;9.30;99.90;;;;;;8448247;28;20372;-83
2022/08/13 05:20:39;;;;;;;8.30;5.75;;;9.30;99.90;;;;;;8419233;28;20023;-84
2022/08/13 05:24:41;;;;;;;5.82;5.25;;;9.40;99.90;;;;;;8441015;28;20028;-84
2022/08/13 05:28:42;;;;;;;6.18;5.47;;;9.90;99.90;;;;;;8454509;28;20042;-84
2022/08/13 05:32:43;;;;;;;5.18;4.68;;;10.20;99.90;;;;;;8423408;28;20030;-83
2022/08/13 05:36:45;;;;;;;7.03;4.65;;;10.60;99.90;;;;;;8432824;28;20028;-83
2022/08/13 05:40:46;;;;;;;5.88;5.30;;;11.10;99.90;;;;;;8436978;28;20028;-84
2022/08/13 05:44:49;;;;;;;5.70;5.07;;;11.20;99.90;;;;;;8429430;28;20024;-85
2022/08/13 05:48:56;;;;;;;5.57;5.07;;;11.40;99.90;;;;;;8446038;28;20118;-83
2022/08/13 05:53:10;;;;;;;5.95;4.75;;;11.50;99.90;;;;;;8439122;28;20020;-83
2022/08/13 05:57:11;;;;;;;6.78;4.90;;;12.00;99.90;;;;;;8431089;28;20027;-84
2022/08/13 06:05:31;;;;;;;5.18;4.22;;;14.00;99.90;;;;;;8432856;28;20043;-80
2022/08/13 06:09:32;;;;;;;4.90;4.07;;;15.60;99.90;;;;;;8440573;28;20123;-80
2022/08/13 06:13:35;;;;;;;4.38;3.97;;;16.30;99.90;;;;;;8412032;28;20023;-81
2022/08/13 06:17:37;;;;;;;4.35;3.50;;;17.40;99.90;;;;;;8439694;28;20020;-81
2022/08/13 06:21:39;;;;;;;3.45;2.90;;;17.50;99.90;;;;;;8416461;28;20653;-81
2022/08/13 06:25:41;;;;;;;3.67;2.75;;;18.60;99.90;;;;;;8416965;28;20095;-80
2022/08/13 06:29:45;;;;;;;3.40;3.10;;;19.40;99.90;;;;;;8442005;28;20463;-79
2022/08/13 06:33:46;;;;;;;4.75;3.17;;;19.40;99.90;;;;;;8433126;28;20031;-80
2022/08/13 06:37:46;;;;;;;3.90;3.20;;;19.60;99.90;;;;;;8445826;28;20032;-81
2022/08/13 06:41:48;;;;;;;6.50;3.00;;;19.70;99.90;;;;;;8460073;28;20469;-80
2022/08/13 06:45:48;;;;;;;4.35;3.17;;;19.70;99.90;;;;;;8430273;28;20025;-80
2022/08/13 06:49:49;;;;;;;5.50;3.10;;;19.80;99.90;;;;;;8433795;28;20032;-81
2022/08/13 06:53:50;;;;;;;3.38;3.08;;;20.00;99.90;;;;;;8441915;28;20640;-80
2022/08/13 06:57:51;;;;;;;3.47;2.80;;;19.50;99.90;;;;;;8461845;28;20042;-80
2022/08/13 07:01:59;;;;;;;4.22;2.92;;;19.50;99.90;;;;;;8455585;28;20024;-80
2022/08/13 07:06:00;;;;;;;3.72;2.78;;;20.20;99.90;;;;;;8437931;28;20066;-81
2022/08/13 07:10:03;;;;;;;3.17;2.88;;;20.70;99.90;;;;;;8433375;28;20245;-80
2022/08/13 07:14:04;;;;;;;3.22;2.15;;;20.70;99.90;;;;;;8431184;28;20449;-81
2022/08/13 07:18:06;;;;;;;2.47;2.25;;;20.70;99.90;;;;;;8451746;28;20011;-80
2022/08/13 07:22:07;;;;;;;4.65;2.38;;;19.80;99.90;;;;;;8443379;28;20028;-80
2022/08/13 07:26:09;;;;;;;2.45;2.00;;;19.10;99.90;;;;;;8423869;28;20028;-81
2022/08/13 07:30:14;;;;;;;3.45;2.50;;;19.70;99.90;;;;;;8425897;28;20392;-81
2022/08/13 07:34:15;;;;;;;3.38;2.63;;;20.50;99.90;;;;;;8425122;28;20515;-80
2022/08/13 07:38:15;;;;;;;3.10;2.30;;;21.00;99.90;;;;;;8438978;28;20020;-79
2022/08/13 07:42:16;;;;;;;2.78;2.08;;;21.10;99.90;;;;;;8427136;28;20126;-80
2022/08/13 07:46:18;;;;;;;2.35;2.15;;;21.60;99.90;;;;;;8446320;28;20045;-80
2022/08/13 07:50:20;;;;;;;2.58;2.25;;;22.20;99.90;;;;;;8422960;28;20039;-81
2022/08/13 07:54:21;;;;;;;4.22;2.30;;;23.30;99.90;;;;;;8438004;28;20034;-81
2022/08/13 07:58:27;;;;;;;3.97;1.83;;;23.70;99.90;;;;;;8453067;28;20124;-81
2022/08/13 08:02:32;;;;;;;1.73;1.63;;;23.40;99.90;;;;;;8437835;28;20031;-81
2022/08/13 08:10:40;;;;;;;2.47;1.60;;;23.50;99.90;;;;;;8417855;28;20647;-79
2022/08/13 08:14:41;;;;;;;2.45;1.90;;;23.50;99.90;;;;;;8400586;28;20317;-78
2022/08/13 08:18:43;;;;;;;1.63;1.52;;;23.50;99.90;;;;;;8397474;28;20020;-79
2022/08/13 08:22:45;;;;;;;1.85;1.65;;;23.70;99.90;;;;;;8392092;28;20020;-79
2022/08/13 08:26:47;;;;;;;2.22;1.70;;;24.10;99.90;;;;;;8384308;28;20053;-79
2022/08/13 08:30:48;;;;;;;4.40;1.92;;;24.20;99.90;;;;;;8363353;28;20506;-79
2022/08/13 08:34:50;;;;;;;3.47;1.90;;;24.00;99.90;;;;;;8394156;28;20016;-79
2022/08/13 08:43:16;;;;;;;2.28;1.60;;;24.20;99.90;;;;;;8405590;28;20047;-79
2022/08/13 08:47:17;;;;;;;9.00;2.05;;;24.40;99.90;;;;;;8375492;28;20550;-78
2022/08/13 08:51:19;;;;;;;3.10;2.10;;;24.10;99.90;;;;;;8383077;28;20025;-79
2022/08/13 08:55:20;;;;;;;2.15;1.58;;;24.30;99.90;;;;;;8368319;28;20426;-79
2022/08/13 08:59:27;;;;;;;2.13;1.92;;;24.60;99.90;;;;;;8370757;28;20024;-78
2022/08/13 09:03:27;;;;;;;4.38;2.08;;;24.40;99.90;;;;;;8380609;28;20157;-79
2022/08/13 09:07:29;;;;;;;2.60;2.10;;;24.10;99.90;;;;;;8396006;28;20666;-78
2022/08/13 09:11:34;;;;;;;2.40;2.20;;;24.20;99.90;;;;;;8385780;28;20021;-80
2022/08/13 09:15:39;;;;;;;3.95;1.98;;;24.10;99.90;;;;;;8361280;28;20688;-80
2022/08/13 09:19:41;;;;;;;2.90;2.00;;;24.40;99.10;;;;;;8382271;28;20043;-80
2022/08/13 09:23:46;;;;;;;5.10;2.17;;;24.40;99.90;;;;;;8400376;28;20060;-80
2022/08/13 09:27:47;;;;;;;3.25;1.98;;;24.70;99.10;;;;;;8369100;28;20518;-79
2022/08/13 09:31:50;;;;;;;2.60;1.80;;;24.50;98.90;;;;;;8361126;28;20068;-79
2022/08/13 09:35:54;;;;;;;4.60;2.10;;;24.50;99.90;;;;;;8371329;28;20484;-81
2022/08/13 09:40:06;;;;;;;2.03;0.98;;;24.70;98.60;;;;;;8358647;28;20025;-79
2022/08/13 09:44:07;;;;;;;9.10;1.80;;;25.10;98.30;;;;;;8380651;28;20502;-78
2022/08/13 09:48:08;;;;;;;4.55;2.20;;;24.90;97.00;;;;;;8375665;28;20028;-79
2022/08/13 09:52:08;;;;;;;5.15;2.17;;;25.00;95.90;;;;;;8387610;28;20031;-80
2022/08/13 09:56:09;;;;;;;8.80;2.00;;;25.20;99.90;;;;;;8391910;28;20017;-79
2022/08/13 10:00:10;;;;;;;4.43;2.05;;;25.10;99.90;;;;;;8385645;28;20036;-78
2022/08/13 10:04:12;;;;;;;65.30;6.57;;;25.10;97.90;;;;;;8366078;28;20031;-81
2022/08/13 10:08:18;;;;;;;5.10;1.98;;;25.20;97.30;;;;;;8362285;28;20063;-80
2022/08/13 10:12:18;;;;;;;4.20;2.13;;;25.50;94.70;;;;;;8390271;28;20466;-79
2022/08/13 10:16:19;;;;;;;7.25;1.50;;;25.60;94.40;;;;;;8376039;28;20078;-78
2022/08/13 10:20:25;;;;;;;3.47;1.88;;;26.00;91.90;;;;;;8382757;28;20154;-77
2022/08/13 10:24:26;;;;;;;1.52;1.42;;;25.80;92.90;;;;;;8364623;28;20028;-81
2022/08/13 10:28:28;;;;;;;1.92;1.60;;;26.30;90.10;;;;;;8374931;28;20029;-80
2022/08/13 10:32:29;;;;;;;1.52;1.42;;;26.90;88.30;;;;;;8366312;28;20032;-80
2022/08/13 10:36:31;;;;;;;1.60;1.50;;;27.30;86.50;;;;;;8379087;28;20495;-80
2022/08/13 10:40:32;;;;;;;2.35;1.60;;;28.00;79.40;;;;;;8361023;28;20557;-78
2022/08/13 10:44:32;;;;;;;3.80;1.70;;;28.70;74.60;;;;;;8357696;28;20033;-80
2022/08/13 10:48:33;;;;;;;3.40;1.60;;;29.10;75.00;;;;;;8389418;28;20032;-79
2022/08/13 10:52:34;;;;;;;4.63;1.80;;;29.10;69.30;;;;;;8353459;28;20021;-79
2022/08/13 10:56:35;;;;;;;1.75;1.58;;;28.60;72.90;;;;;;8358424;28;20104;-79
2022/08/13 11:00:35;;;;;;;3.13;1.52;;;28.30;71.90;;;;;;8360405;28;20092;-80
2022/08/13 11:04:37;;;;;;;2.60;1.58;;;29.20;70.50;;;;;;8381952;28;20033;-78
2022/08/13 11:08:38;;;;;;;2.75;1.52;;;29.00;61.50;;;;;;8360582;28;20035;-79
2022/08/13 11:12:42;;;;;;;2.72;1.30;;;29.00;64.00;;;;;;8371492;28;20032;-77
2022/08/13 11:25:07;;;;;;;4.05;1.27;;;30.90;58.90;;;;;;8399232;28;20496;-79
2022/08/13 11:29:07;;;;;;;1.73;1.20;;;30.80;58.70;;;;;;8376159;28;20098;-79
2022/08/13 11:33:11;;;;;;;7.40;1.40;;;30.90;56.10;;;;;;8365553;28;20381;-79
2022/08/13 11:37:12;;;;;;;8.60;2.05;;;30.40;55.50;;;;;;8369794;28;20485;-79
2022/08/13 11:41:13;;;;;;;1.67;1.20;;;30.20;54.70;;;;;;8373523;28;20040;-79
2022/08/13 11:45:13;;;;;;;1.55;1.40;;;30.80;54.60;;;;;;8388285;28;20485;-78
2022/08/13 11:49:14;;;;;;;1.83;1.17;;;32.10;52.60;;;;;;8389952;28;20051;-79
2022/08/13 11:53:15;;;;;;;3.78;1.60;;;31.70;50.10;;;;;;8392177;28;20057;-79
2022/08/13 11:57:15;;;;;;;1.30;1.20;;;31.50;54.00;;;;;;8385833;28;20036;-77
2022/08/13 12:01:18;;;;;;;2.05;1.40;;;31.60;51.30;;;;;;8391734;28;20020;-80
2022/08/13 12:05:19;;;;;;;2.28;1.30;;;31.40;54.20;;;;;;8389583;28;20110;-77
2022/08/13 12:09:20;;;;;;;2.58;1.40;;;30.70;51.50;;;;;;8372479;28;20442;-78
2022/08/13 12:13:21;;;;;;;1.92;1.13;;;31.00;53.00;;;;;;8363500;28;20025;-80
2022/08/13 12:17:22;;;;;;;2.67;1.30;;;31.40;52.60;;;;;;8389114;28;20024;-78
2022/08/13 12:21:22;;;;;;;1.95;1.40;;;31.60;49.80;;;;;;8383632;28;20055;-79
2022/08/13 12:25:26;;;;;;;3.45;1.35;;;32.20;49.80;;;;;;8398404;28;20112;-79
2022/08/13 12:29:27;;;;;;;1.35;1.15;;;33.60;49.20;;;;;;8379964;28;20029;-79
2022/08/13 12:33:29;;;;;;;3.15;1.55;;;33.70;46.90;;;;;;8381897;28;20076;-79
2022/08/13 12:37:30;;;;;;;1.40;1.30;;;33.10;46.30;;;;;;8389276;28;20016;-79
2022/08/13 12:41:32;;;;;;;2.35;1.25;;;31.90;46.90;;;;;;8393275;28;20035;-78
2022/08/13 12:45:34;;;;;;;1.70;1.27;;;30.90;49.30;;;;;;8376375;28;20036;-79
2022/08/13 12:49:35;;;;;;;2.88;1.30;;;30.30;49.30;;;;;;8399259;28;20036;-79
2022/08/13 12:53:35;;;;;;;3.15;1.38;;;29.90;50.20;;;;;;8367646;28;20033;-80
2022/08/13 12:57:38;;;;;;;7.13;1.52;;;30.10;49.50;;;;;;8388249;28;20037;-79
2022/08/13 13:01:38;;;;;;;3.10;1.30;;;30.90;49.80;;;;;;8386621;28;20485;-77
2022/08/13 13:05:40;;;;;;;2.50;1.23;;;30.40;51.80;;;;;;8397768;28;20043;-76
2022/08/13 13:09:41;;;;;;;1.65;1.40;;;30.60;51.20;;;;;;8375906;28;20115;-76
2022/08/13 13:13:44;;;;;;;1.48;1.38;;;33.10;48.50;;;;;;8370059;28;20023;-79
2022/08/13 13:17:45;;;;;;;2.33;1.60;;;34.50;46.60;;;;;;8357635;28;20028;-77
2022/08/13 13:21:47;;;;;;;1.40;1.30;;;32.70;48.30;;;;;;8355477;28;20024;-78
2022/08/13 13:25:49;;;;;;;2.20;1.25;;;31.50;50.00;;;;;;8370306;28;20034;-79
2022/08/13 13:29:50;;;;;;;1.80;1.45;;;31.90;52.40;;;;;;8393847;28;20104;-78
2022/08/13 13:33:51;;;;;;;1.45;1.35;;;30.00;53.80;;;;;;8359069;28;20165;-77
2022/08/13 13:37:52;;;;;;;2.60;1.67;;;29.90;53.20;;;;;;8376014;28;20024;-79
2022/08/13 13:41:53;;;;;;;1.92;1.70;;;31.10;51.80;;;;;;8383114;28;20489;-77
2022/08/13 13:45:56;;;;;;;1.40;1.30;;;32.80;48.40;;;;;;8402379;28;20095;-78
2022/08/13 13:49:56;;;;;;;1.92;1.50;;;32.40;48.20;;;;;;8383879;28;20032;-79
2022/08/13 13:53:57;;;;;;;3.30;1.50;;;31.90;49.10;;;;;;8369616;28;20024;-79
2022/08/13 13:57:57;;;;;;;3.58;1.40;;;33.50;46.40;;;;;;8361853;28;20036;-78
2022/08/13 14:01:59;;;;;;;3.55;1.60;;;35.40;43.70;;;;;;8364259;28;20373;-78
2022/08/13 14:06:02;;;;;;;1.70;1.60;;;36.30;42.50;;;;;;8378840;28;20476;-80
2022/08/13 14:10:03;;;;;;;1.60;1.23;;;37.70;43.00;;;;;;8364307;28;20485;-80
2022/08/13 14:14:03;;;;;;;3.10;1.42;;;39.20;39.50;;;;;;8367070;28;20023;-80
2022/08/13 14:18:07;;;;;;;4.85;1.83;;;35.30;44.80;;;;;;8373167;28;20032;-80
2022/08/13 14:22:08;;;;;;;1.70;1.50;;;34.50;45.50;;;;;;8373618;28;20519;-80
2022/08/13 14:26:13;;;;;;;3.63;1.60;;;32.70;47.60;;;;;;8368123;28;20031;-80
2022/08/13 14:30:15;;;;;;;3.28;1.80;;;30.70;50.70;;;;;;8377082;28;20028;-79
2022/08/13 14:34:16;;;;;;;2.65;1.48;;;29.10;55.00;;;;;;8422105;28;20043;-79
2022/08/13 14:38:17;;;;;;;2.88;1.55;;;29.30;55.00;;;;;;8408604;28;20104;-79
2022/08/13 14:42:25;;;;;;;1.70;1.60;;;29.70;54.20;;;;;;8383174;28;20070;-79
2022/08/13 14:46:26;;;;;;;2.88;1.77;;;29.20;55.50;;;;;;8382563;28;20059;-79
2022/08/13 14:50:29;;;;;;;1.80;1.40;;;28.30;55.90;;;;;;8397326;28;20445;-81
2022/08/13 14:54:31;;;;;;;2.63;1.52;;;28.00;56.90;;;;;;8392215;28;20024;-80
2022/08/13 14:58:32;;;;;;;1.95;1.65;;;29.40;54.40;;;;;;8395395;28;20024;-80
2022/08/13 15:02:37;;;;;;;3.47;1.70;;;30.20;51.20;;;;;;8395526;28;20027;-80
2022/08/13 15:06:37;;;;;;;2.10;1.52;;;29.90;52.00;;;;;;8377534;28;20047;-79
2022/08/13 15:10:38;;;;;;;2.47;1.80;;;29.00;52.80;;;;;;8369117;28;20041;-80
2022/08/13 15:14:39;;;;;;;1.70;1.55;;;29.60;53.30;;;;;;8371130;28;20024;-80
2022/08/13 15:18:41;;;;;;;2.38;1.50;;;32.90;49.70;;;;;;8388322;28;20058;-80
2022/08/13 15:22:42;;;;;;;7.55;3.88;;;34.70;45.70;;;;;;8374399;28;20115;-79
2022/08/13 15:26:42;;;;;;;3.10;1.70;;;35.20;46.50;;;;;;8372906;28;20496;-80
2022/08/13 15:30:45;;;;;;;3.35;1.67;;;35.90;44.00;;;;;;8385532;28;20071;-80
2022/08/13 15:34:57;;;;;;;5.45;3.20;;;33.80;44.20;;;;;;8408394;28;20020;-79
2022/08/13 15:38:58;;;;;;;5.07;3.92;;;34.30;44.20;;;;;;8382031;28;20017;-80
2022/08/13 15:43:04;;;;;;;2.28;1.60;;;35.00;44.00;;;;;;8411613;28;20030;-80
2022/08/13 15:47:05;;;;;;;2.67;1.60;;;35.10;43.40;;;;;;8407364;28;20017;-80
2022/08/13 15:51:06;;;;;;;4.07;1.60;;;33.40;44.10;;;;;;8369156;28;20103;-79
2022/08/13 15:55:07;;;;;;;3.40;1.90;;;31.30;48.10;;;;;;8363218;28;20146;-79
2022/08/13 15:59:08;;;;;;;1.88;1.70;;;29.10;51.20;;;;;;8377498;28;20020;-80
2022/08/13 16:03:08;;;;;;;1.50;1.40;;;28.30;53.10;;;;;;8422213;28;20059;-80
2022/08/13 16:07:10;;;;;;;4.47;1.70;;;27.60;54.80;;;;;;8394871;28;20426;-80
2022/08/13 16:11:11;;;;;;;2.78;1.58;;;27.20;55.10;;;;;;8406352;28;20043;-79
2022/08/13 16:15:11;;;;;;;6.10;4.35;;;26.90;57.80;;;;;;8387148;28;20021;-79
2022/08/13 16:19:12;;;;;;;5.85;3.55;;;26.90;57.10;;;;;;8394313;28;20020;-79
2022/08/13 16:23:13;;;;;;;10.93;7.72;;;26.80;59.60;;;;;;8407543;28;20027;-79
2022/08/13 16:27:15;;;;;;;2.45;1.77;;;26.90;58.00;;;;;;8384677;28;20060;-79
2022/08/13 16:31:15;;;;;;;6.32;5.18;;;26.90;56.40;;;;;;8400916;28;20031;-79
2022/08/13 16:35:17;;;;;;;2.92;2.30;;;26.80;57.50;;;;;;8400138;28;20016;-79
2022/08/13 16:39:18;;;;;;;9.63;5.82;;;26.60;55.90;;;;;;8403505;28;20024;-80
2022/08/13 16:43:27;;;;;;;4.55;3.58;;;26.20;60.60;;;;;;8386515;28;20036;-79
2022/08/13 16:47:28;;;;;;;11.80;5.93;;;25.90;57.90;;;;;;8375690;28;20032;-79
2022/08/13 16:51:32;;;;;;;6.85;3.42;;;25.70;58.90;;;;;;8382108;28;20173;-79
2022/08/13 16:55:32;;;;;;;3.85;2.35;;;25.50;60.00;;;;;;8365784;28;20021;-80
2022/08/13 16:59:33;;;;;;;3.55;1.83;;;25.20;59.80;;;;;;8382741;28;20120;-79
2022/08/13 17:12:14;;;;;;;2.83;2.30;;;24.90;60.80;;;;;;8405954;28;20115;-80
2022/08/13 17:16:16;;;;;;;3.30;1.90;;;24.60;62.80;;;;;;8413700;28;20062;-79
2022/08/13 17:20:16;;;;;;;3.10;2.75;;;24.30;64.70;;;;;;8408040;28;20070;-79
2022/08/13 17:24:17;;;;;;;4.82;2.78;;;23.90;66.20;;;;;;8386190;28;20024;-80
2022/08/13 17:28:23;;;;;;;5.50;3.28;;;23.70;67.90;;;;;;8382073;28;20103;-79
2022/08/13 17:32:24;;;;;;;2.80;2.50;;;23.20;68.30;;;;;;8376508;28;20025;-80
2022/08/13 17:36:25;;;;;;;6.00;4.57;;;22.90;71.60;;;;;;8397235;28;20056;-80
2022/08/13 17:40:29;;;;;;;3.55;3.25;;;22.70;72.80;;;;;;8392712;28;20049;-79
2022/08/13 17:44:30;;;;;;;7.25;3.30;;;22.50;73.90;;;;;;8378335;28;20028;-79
2022/08/13 17:48:34;;;;;;;3.10;2.35;;;22.30;73.20;;;;;;8370788;28;20031;-79
2022/08/13 17:52:34;;;;;;;3.30;3.00;;;22.20;75.80;;;;;;8378722;28;20040;-79
2022/08/13 17:57:02;;;;;;;;;;;22.20;75.40;;;;;;8444201;27;20395;-77
2022/08/13 18:01:08;;;;;;;2.10;1.83;;;21.80;79.20;;;;;;8421949;28;19912;-78
2022/08/13 18:05:09;;;;;;;3.13;2.10;;;21.80;81.00;;;;;;8419612;28;20305;-78
2022/08/13 18:09:13;;;;;;;2.00;1.85;;;21.70;81.60;;;;;;8419230;28;20035;-78
2022/08/13 18:13:14;;;;;;;4.25;2.05;;;21.60;81.60;;;;;;8420510;28;20035;-78
2022/08/13 18:17:16;;;;;;;5.32;2.53;;;21.60;82.00;;;;;;8418109;28;20024;-79
2022/08/13 18:21:17;;;;;;;2.80;2.10;;;21.60;84.60;;;;;;8419374;28;20029;-78
2022/08/13 18:25:17;;;;;;;2.88;2.17;;;21.30;86.80;;;;;;8420003;28;20396;-78
2022/08/13 18:29:20;;;;;;;4.80;1.92;;;20.90;90.00;;;;;;8420203;28;20225;-79
2022/08/13 18:33:21;;;;;;;4.75;2.10;;;20.70;91.50;;;;;;8418770;28;20020;-80
2022/08/13 18:37:22;;;;;;;2.10;1.90;;;20.20;93.20;;;;;;8418250;28;20020;-80
2022/08/13 18:41:23;;;;;;;3.60;1.98;;;20.00;93.80;;;;;;8418922;28;20044;-79
2022/08/13 18:45:25;;;;;;;3.05;2.38;;;19.80;94.10;;;;;;8419291;28;20450;-78
2022/08/13 18:49:25;;;;;;;2.97;2.40;;;19.80;94.90;;;;;;8420276;28;20029;-79
2022/08/13 18:53:26;;;;;;;4.43;2.15;;;19.50;96.50;;;;;;8417507;28;20032;-79
2022/08/13 18:57:27;;;;;;;6.03;2.40;;;19.20;98.40;;;;;;8415039;28;20047;-79
2022/08/13 19:01:27;;;;;;;6.28;2.42;;;18.90;99.90;;;;;;8419539;28;20023;-79
2022/08/13 19:05:28;;;;;;;3.97;2.30;;;18.60;99.90;;;;;;8410181;28;20037;-79
2022/08/13 19:09:30;;;;;;;3.80;2.35;;;18.40;99.90;;;;;;8395562;28;20063;-79
2022/08/13 19:13:30;;;;;;;2.90;2.30;;;18.20;99.90;;;;;;8396472;28;20028;-78
2022/08/13 19:17:31;;;;;;;4.70;2.60;;;18.00;99.90;;;;;;8394005;28;20167;-79
2022/08/13 19:21:31;;;;;;;3.83;2.78;;;17.70;99.90;;;;;;8395151;28;20488;-79
2022/08/13 19:25:33;;;;;;;5.03;2.95;;;17.50;99.90;;;;;;8395308;28;20024;-79
2022/08/13 19:29:33;;;;;;;6.20;2.90;;;17.50;99.90;;;;;;8394854;28;20025;-79
2022/08/13 19:33:34;;;;;;;4.75;2.58;;;17.50;99.90;;;;;;8395870;28;20147;-79
2022/08/13 19:37:35;;;;;;;4.05;3.05;;;17.50;99.90;;;;;;8393998;28;20030;-79
2022/08/13 19:41:36;;;;;;;6.88;3.20;;;17.10;99.90;;;;;;8395056;28;20052;-78
2022/08/13 19:45:38;;;;;;;4.50;3.45;;;16.80;99.90;;;;;;8395540;28;20433;-79
2022/08/13 19:49:38;;;;;;;4.40;3.42;;;16.30;99.90;;;;;;8394274;28;20572;-79
2022/08/13 19:53:39;;;;;;;4.53;3.50;;;16.10;99.90;;;;;;8393953;28;20024;-79
2022/08/13 19:57:40;;;;;;;4.65;3.58;;;15.90;99.90;;;;;;8390863;28;20067;-78
2022/08/13 20:01:41;;;;;;;5.45;3.08;;;16.10;99.90;;;;;;8394630;28;20036;-79
2022/08/13 20:05:41;;;;;;;4.95;3.17;;;16.20;99.90;;;;;;8393359;28;20028;-79
2022/08/13 20:09:42;;;;;;;3.10;2.80;;;16.30;99.90;;;;;;8393469;28;20047;-79
2022/08/13 20:13:42;;;;;;;6.18;3.35;;;16.20;99.90;;;;;;8392693;28;20025;-78
2022/08/13 20:17:43;;;;;;;4.85;3.60;;;15.90;99.90;;;;;;8391479;28;20021;-79
2022/08/13 20:21:46;;;;;;;4.22;3.33;;;15.60;99.90;;;;;;8392264;28;20021;-79
2022/08/13 20:25:48;;;;;;;6.70;3.40;;;15.40;99.90;;;;;;8392350;28;20059;-78
2022/08/13 20:29:49;;;;;;;4.03;3.38;;;15.20;99.90;;;;;;8394138;28;20078;-78
2022/08/13 20:33:50;;;;;;;3.90;3.50;;;15.30;99.90;;;;;;8392218;28;20012;-78
2022/08/13 20:37:51;;;;;;;5.65;3.53;;;15.20;99.90;;;;;;8393295;28;20017;-79
2022/08/13 20:41:53;;;;;;;4.93;3.70;;;15.20;99.90;;;;;;8392388;28;20020;-78
2022/08/13 20:45:54;;;;;;;3.83;3.53;;;15.30;99.90;;;;;;8392185;28;20077;-78
2022/08/13 20:49:54;;;;;;;5.28;3.60;;;15.10;99.90;;;;;;8392311;28;20020;-79
2022/08/13 20:53:55;;;;;;;4.57;3.97;;;15.00;99.90;;;;;;8389688;28;20104;-78
2022/08/13 20:57:55;;;;;;;5.60;3.80;;;15.20;99.90;;;;;;8389307;28;20024;-78
2022/08/13 21:01:56;;;;;;;6.20;4.10;;;15.00;99.90;;;;;;8391290;28;20081;-78
2022/08/13 21:05:56;;;;;;;4.97;4.47;;;14.70;99.90;;;;;;8391098;28;20024;-78
2022/08/13 21:09:57;;;;;;;5.13;3.70;;;14.60;99.90;;;;;;8390998;28;20431;-78
2022/08/13 21:13:59;;;;;;;4.75;4.05;;;14.70;99.90;;;;;;8390762;28;20586;-79
2022/08/13 21:17:59;;;;;;;5.00;4.00;;;14.60;99.90;;;;;;8389168;28;20017;-79
2022/08/13 21:22:03;;;;;;;4.35;3.95;;;14.70;99.90;;;;;;8391034;28;20024;-79
2022/08/13 21:26:03;;;;;;;4.38;3.97;;;14.70;99.90;;;;;;8390522;28;20028;-79
2022/08/13 21:30:05;;;;;;;17.58;11.50;;;14.40;99.90;;;;;;8388532;28;20510;-78
2022/08/13 21:34:06;;;;;;;10.35;5.35;;;14.10;99.90;;;;;;8390038;28;20036;-79